sensor_id;sensor_type;location;lat;lon;timestamp;pressure;altitude;pressure_sealevel;temperature;humidity
49216;BME280;45943;53.148;8.204;2023-12-20T00:01:49;101203.44;;;9.67;100.00
49216;BME280;45943;53.148;8.204;2023-12-20T00:04:15;101196.03;;;9.71;100.00
49216;BME280;45943;53.148;8.204;2023-12-20T00:06:41;101184.16;;;9.75;100.00
49216;BME280;45943;53.148;8.204;2023-12-20T00:09:07;101191.34;;;9.74;100.00
49216;BME280;45943;53.148;8.204;2023-12-20T00:11:33;101187.16;;;9.70;100.00
49216;BME280;45943;53.148;8.204;2023-12-20T00:13:59;101184.50;;;9.58;100.00
49216;BME280;45943;53.148;8.204;2023-12-20T00:16:25;101183.19;;;9.63;100.00
49216;BME280;45943;53.148;8.204;2023-12-20T00:18:51;101183.00;;;9.66;100.00
49216;BME280;45943;53.148;8.204;2023-12-20T00:21:18;101174.28;;;9.63;100.00
49216;BME280;45943;53.148;8.204;2023-12-20T00:23:43;101176.97;;;9.63;100.00
49216;BME280;45943;53.148;8.204;2023-12-20T00:26:09;101173.25;;;9.65;100.00
49216;BME280;45943;53.148;8.204;2023-12-20T00:28:35;101174.53;;;9.60;100.00
49216;BME280;45943;53.148;8.204;2023-12-20T00:31:01;101174.31;;;9.50;100.00
49216;BME280;45943;53.148;8.204;2023-12-20T00:33:28;101175.84;;;9.54;100.00
49216;BME280;45943;53.148;8.204;2023-12-20T00:35:54;101167.78;;;9.41;100.00
49216;BME280;45943;53.148;8.204;2023-12-20T00:38:20;101177.34;;;9.45;100.00
49216;BME280;45943;53.148;8.204;2023-12-20T00:40:46;101171.75;;;9.48;100.00
49216;BME280;45943;53.148;8.204;2023-12-20T00:43:12;101167.03;;;9.52;100.00
49216;BME280;45943;53.148;8.204;2023-12-20T00:45:38;101157.06;;;9.41;100.00
49216;BME280;45943;53.148;8.204;2023-12-20T00:48:04;101162.97;;;9.46;100.00
49216;BME280;45943;53.148;8.204;2023-12-20T00:50:31;101176.38;;;9.46;100.00
49216;BME280;45943;53.148;8.204;2023-12-20T00:52:57;101161.38;;;9.44;100.00
49216;BME280;45943;53.148;8.204;2023-12-20T00:55:23;101165.09;;;9.41;100.00
49216;BME280;45943;53.148;8.204;2023-12-20T00:57:49;101162.09;;;9.33;100.00
49216;BME280;45943;53.148;8.204;2023-12-20T01:00:15;101155.72;;;9.36;100.00
49216;BME280;45943;53.148;8.204;2023-12-20T01:02:41;101154.09;;;9.46;100.00
49216;BME280;45943;53.148;8.204;2023-12-20T01:05:07;101142.06;;;9.52;100.00
49216;BME280;45943;53.148;8.204;2023-12-20T01:07:35;101141.44;;;9.48;100.00
49216;BME280;45943;53.148;8.204;2023-12-20T01:10:01;101138.75;;;9.48;100.00
49216;BME280;45943;53.148;8.204;2023-12-20T01:12:27;101135.16;;;9.36;100.00
49216;BME280;45943;53.148;8.204;2023-12-20T01:14:53;101139.84;;;9.45;100.00
49216;BME280;45943;53.148;8.204;2023-12-20T01:17:19;101134.16;;;9.50;100.00
49216;BME280;45943;53.148;8.204;2023-12-20T01:19:45;101130.31;;;9.54;100.00
49216;BME280;45943;53.148;8.204;2023-12-20T01:22:11;101148.16;;;9.54;100.00
49216;BME280;45943;53.148;8.204;2023-12-20T01:24:37;101135.13;;;9.49;100.00
49216;BME280;45943;53.148;8.204;2023-12-20T01:27:03;101140.91;;;9.43;100.00
49216;BME280;45943;53.148;8.204;2023-12-20T01:29:29;101143.38;;;9.46;100.00
49216;BME280;45943;53.148;8.204;2023-12-20T01:31:55;101132.59;;;9.35;100.00
49216;BME280;45943;53.148;8.204;2023-12-20T01:34:21;101124.00;;;9.30;100.00
49216;BME280;45943;53.148;8.204;2023-12-20T01:36:47;101120.47;;;9.29;100.00
49216;BME280;45943;53.148;8.204;2023-12-20T01:39:13;101125.28;;;9.24;100.00
49216;BME280;45943;53.148;8.204;2023-12-20T01:41:39;101126.34;;;9.22;100.00
49216;BME280;45943;53.148;8.204;2023-12-20T01:44:05;101127.78;;;9.14;100.00
49216;BME280;45943;53.148;8.204;2023-12-20T01:46:31;101117.06;;;9.14;100.00
49216;BME280;45943;53.148;8.204;2023-12-20T01:48:57;101111.81;;;9.00;100.00
49216;BME280;45943;53.148;8.204;2023-12-20T01:51:23;101115.22;;;9.02;100.00
49216;BME280;45943;53.148;8.204;2023-12-20T01:53:53;101107.31;;;9.13;100.00
49216;BME280;45943;53.148;8.204;2023-12-20T01:56:20;101109.03;;;9.02;100.00
49216;BME280;45943;53.148;8.204;2023-12-20T01:58:47;101106.56;;;9.11;100.00
49216;BME280;45943;53.148;8.204;2023-12-20T02:01:13;101098.34;;;9.14;100.00
49216;BME280;45943;53.148;8.204;2023-12-20T02:03:41;101096.50;;;9.15;100.00
49216;BME280;45943;53.148;8.204;2023-12-20T02:06:08;101095.44;;;9.05;100.00
49216;BME280;45943;53.148;8.204;2023-12-20T02:08:35;101091.25;;;9.13;100.00
49216;BME280;45943;53.148;8.204;2023-12-20T02:11:01;101098.63;;;9.23;100.00
49216;BME280;45943;53.148;8.204;2023-12-20T02:13:27;101095.31;;;9.19;100.00
49216;BME280;45943;53.148;8.204;2023-12-20T02:15:54;101094.66;;;9.28;100.00
49216;BME280;45943;53.148;8.204;2023-12-20T02:18:20;101089.75;;;9.22;100.00
49216;BME280;45943;53.148;8.204;2023-12-20T02:20:47;101094.03;;;9.25;100.00
49216;BME280;45943;53.148;8.204;2023-12-20T02:23:13;101093.06;;;9.26;100.00
49216;BME280;45943;53.148;8.204;2023-12-20T02:25:39;101089.31;;;9.28;100.00
49216;BME280;45943;53.148;8.204;2023-12-20T02:28:05;101088.13;;;9.32;100.00
49216;BME280;45943;53.148;8.204;2023-12-20T02:30:32;101079.03;;;9.22;100.00
49216;BME280;45943;53.148;8.204;2023-12-20T02:32:59;101071.56;;;9.27;100.00
49216;BME280;45943;53.148;8.204;2023-12-20T02:35:26;101067.91;;;9.28;100.00
49216;BME280;45943;53.148;8.204;2023-12-20T02:37:52;101070.59;;;9.28;100.00
49216;BME280;45943;53.148;8.204;2023-12-20T02:40:18;101072.28;;;9.29;100.00
49216;BME280;45943;53.148;8.204;2023-12-20T02:42:44;101068.22;;;9.36;100.00
49216;BME280;45943;53.148;8.204;2023-12-20T02:45:10;101072.38;;;9.40;100.00
49216;BME280;45943;53.148;8.204;2023-12-20T02:47:36;101065.06;;;9.42;100.00
49216;BME280;45943;53.148;8.204;2023-12-20T02:50:02;101066.50;;;9.35;100.00
49216;BME280;45943;53.148;8.204;2023-12-20T02:52:28;101062.56;;;9.28;100.00
49216;BME280;45943;53.148;8.204;2023-12-20T02:54:54;101052.38;;;9.20;100.00
49216;BME280;45943;53.148;8.204;2023-12-20T02:57:20;101063.19;;;9.19;100.00
49216;BME280;45943;53.148;8.204;2023-12-20T02:59:46;101056.13;;;9.31;100.00
49216;BME280;45943;53.148;8.204;2023-12-20T03:02:12;101059.56;;;9.20;100.00
49216;BME280;45943;53.148;8.204;2023-12-20T03:04:38;101054.63;;;9.27;100.00
49216;BME280;45943;53.148;8.204;2023-12-20T03:07:04;101055.41;;;9.16;100.00
49216;BME280;45943;53.148;8.204;2023-12-20T03:09:30;101050.44;;;9.23;100.00
49216;BME280;45943;53.148;8.204;2023-12-20T03:11:56;101048.63;;;9.23;100.00
49216;BME280;45943;53.148;8.204;2023-12-20T03:14:22;101048.97;;;9.18;100.00
49216;BME280;45943;53.148;8.204;2023-12-20T03:16:51;101044.78;;;9.27;100.00
49216;BME280;45943;53.148;8.204;2023-12-20T03:19:17;101034.94;;;9.28;100.00
49216;BME280;45943;53.148;8.204;2023-12-20T03:21:45;101036.41;;;9.32;100.00
49216;BME280;45943;53.148;8.204;2023-12-20T03:24:11;101038.97;;;9.33;100.00
49216;BME280;45943;53.148;8.204;2023-12-20T03:26:37;101034.25;;;9.37;100.00
49216;BME280;45943;53.148;8.204;2023-12-20T03:29:03;101032.31;;;9.39;100.00
49216;BME280;45943;53.148;8.204;2023-12-20T03:31:29;101021.00;;;9.35;100.00
49216;BME280;45943;53.148;8.204;2023-12-20T03:33:55;101033.97;;;9.29;100.00
49216;BME280;45943;53.148;8.204;2023-12-20T03:36:21;101029.03;;;9.35;100.00
49216;BME280;45943;53.148;8.204;2023-12-20T03:38:48;101028.84;;;9.26;100.00
49216;BME280;45943;53.148;8.204;2023-12-20T03:41:14;101016.38;;;9.37;100.00
49216;BME280;45943;53.148;8.204;2023-12-20T03:43:40;101014.75;;;9.47;100.00
49216;BME280;45943;53.148;8.204;2023-12-20T03:46:07;101017.66;;;9.44;100.00
49216;BME280;45943;53.148;8.204;2023-12-20T03:48:34;101015.97;;;9.31;100.00
49216;BME280;45943;53.148;8.204;2023-12-20T03:51:00;100999.75;;;9.45;100.00
49216;BME280;45943;53.148;8.204;2023-12-20T03:53:26;101004.50;;;9.29;100.00
49216;BME280;45943;53.148;8.204;2023-12-20T03:55:52;101008.34;;;9.37;100.00
49216;BME280;45943;53.148;8.204;2023-12-20T03:58:18;100993.69;;;9.30;100.00
49216;BME280;45943;53.148;8.204;2023-12-20T04:00:44;100987.66;;;9.39;100.00
49216;BME280;45943;53.148;8.204;2023-12-20T04:03:10;100998.50;;;9.38;100.00
49216;BME280;45943;53.148;8.204;2023-12-20T04:05:39;100975.38;;;9.37;100.00
49216;BME280;45943;53.148;8.204;2023-12-20T04:08:07;100994.28;;;9.46;100.00
49216;BME280;45943;53.148;8.204;2023-12-20T04:10:33;100992.72;;;9.31;100.00
49216;BME280;45943;53.148;8.204;2023-12-20T04:12:59;100975.13;;;9.16;100.00
49216;BME280;45943;53.148;8.204;2023-12-20T04:15:25;100976.47;;;9.34;100.00
49216;BME280;45943;53.148;8.204;2023-12-20T04:17:51;100974.94;;;9.30;100.00
49216;BME280;45943;53.148;8.204;2023-12-20T04:20:17;100972.88;;;9.46;100.00
49216;BME280;45943;53.148;8.204;2023-12-20T04:22:43;100978.38;;;9.32;100.00
49216;BME280;45943;53.148;8.204;2023-12-20T04:25:09;100990.69;;;9.35;100.00
49216;BME280;45943;53.148;8.204;2023-12-20T04:27:35;100981.47;;;9.39;100.00
49216;BME280;45943;53.148;8.204;2023-12-20T04:30:01;100981.91;;;9.33;100.00
49216;BME280;45943;53.148;8.204;2023-12-20T04:32:27;101000.44;;;9.36;100.00
49216;BME280;45943;53.148;8.204;2023-12-20T04:34:53;100989.72;;;9.36;100.00
49216;BME280;45943;53.148;8.204;2023-12-20T04:37:19;100980.84;;;9.35;100.00
49216;BME280;45943;53.148;8.204;2023-12-20T04:39:45;100990.88;;;9.44;100.00
49216;BME280;45943;53.148;8.204;2023-12-20T04:42:11;100989.66;;;9.48;100.00
49216;BME280;45943;53.148;8.204;2023-12-20T04:44:37;100983.09;;;9.53;100.00
49216;BME280;45943;53.148;8.204;2023-12-20T04:47:03;100977.41;;;9.33;100.00
49216;BME280;45943;53.148;8.204;2023-12-20T04:49:29;100978.91;;;9.37;100.00
49216;BME280;45943;53.148;8.204;2023-12-20T04:51:55;100982.50;;;9.49;100.00
49216;BME280;45943;53.148;8.204;2023-12-20T04:54:22;100965.69;;;9.47;100.00
49216;BME280;45943;53.148;8.204;2023-12-20T04:56:48;100973.38;;;9.52;100.00
49216;BME280;45943;53.148;8.204;2023-12-20T04:59:14;100991.19;;;9.40;100.00
49216;BME280;45943;53.148;8.204;2023-12-20T05:01:40;100959.06;;;9.40;100.00
49216;BME280;45943;53.148;8.204;2023-12-20T05:04:07;100974.34;;;9.14;100.00
49216;BME280;45943;53.148;8.204;2023-12-20T05:06:33;100978.38;;;9.32;100.00
49216;BME280;45943;53.148;8.204;2023-12-20T05:08:59;100960.72;;;9.30;100.00
49216;BME280;45943;53.148;8.204;2023-12-20T05:11:25;100957.59;;;9.36;100.00
49216;BME280;45943;53.148;8.204;2023-12-20T05:13:51;100965.41;;;9.39;100.00
49216;BME280;45943;53.148;8.204;2023-12-20T05:16:17;100952.00;;;9.39;100.00
49216;BME280;45943;53.148;8.204;2023-12-20T05:18:47;100951.88;;;9.40;100.00
49216;BME280;45943;53.148;8.204;2023-12-20T05:21:15;100953.28;;;9.46;100.00
49216;BME280;45943;53.148;8.204;2023-12-20T05:23:41;100953.16;;;9.47;100.00
49216;BME280;45943;53.148;8.204;2023-12-20T05:26:07;100964.88;;;9.58;100.00
49216;BME280;45943;53.148;8.204;2023-12-20T05:28:33;100960.22;;;9.48;100.00
49216;BME280;45943;53.148;8.204;2023-12-20T05:30:59;100966.31;;;9.51;100.00
49216;BME280;45943;53.148;8.204;2023-12-20T05:33:25;100955.53;;;9.39;100.00
49216;BME280;45943;53.148;8.204;2023-12-20T05:35:51;100957.78;;;9.45;100.00
49216;BME280;45943;53.148;8.204;2023-12-20T05:38:17;100958.41;;;9.49;100.00
49216;BME280;45943;53.148;8.204;2023-12-20T05:40:43;100949.22;;;9.40;100.00
49216;BME280;45943;53.148;8.204;2023-12-20T05:43:09;100945.50;;;9.30;100.00
49216;BME280;45943;53.148;8.204;2023-12-20T05:45:35;100956.06;;;9.44;100.00
49216;BME280;45943;53.148;8.204;2023-12-20T05:48:01;100961.69;;;9.53;100.00
49216;BME280;45943;53.148;8.204;2023-12-20T05:50:27;100943.91;;;9.52;100.00
49216;BME280;45943;53.148;8.204;2023-12-20T05:52:53;100950.25;;;9.51;100.00
49216;BME280;45943;53.148;8.204;2023-12-20T05:55:19;100944.38;;;9.45;100.00
49216;BME280;45943;53.148;8.204;2023-12-20T05:57:45;100948.78;;;9.46;100.00
49216;BME280;45943;53.148;8.204;2023-12-20T06:00:11;100932.72;;;9.46;100.00
49216;BME280;45943;53.148;8.204;2023-12-20T06:02:38;100946.59;;;9.52;100.00
49216;BME280;45943;53.148;8.204;2023-12-20T06:05:04;100937.66;;;9.64;100.00
49216;BME280;45943;53.148;8.204;2023-12-20T06:07:31;100937.75;;;9.62;100.00
49216;BME280;45943;53.148;8.204;2023-12-20T06:09:56;100940.34;;;9.64;100.00
49216;BME280;45943;53.148;8.204;2023-12-20T06:12:22;100946.38;;;9.55;100.00
49216;BME280;45943;53.148;8.204;2023-12-20T06:14:48;100939.94;;;9.57;100.00
49216;BME280;45943;53.148;8.204;2023-12-20T06:17:14;100928.50;;;9.55;100.00
49216;BME280;45943;53.148;8.204;2023-12-20T06:19:40;100921.31;;;9.56;100.00
49216;BME280;45943;53.148;8.204;2023-12-20T06:22:10;100918.50;;;9.57;100.00
49216;BME280;45943;53.148;8.204;2023-12-20T06:24:36;100905.72;;;9.61;100.00
49216;BME280;45943;53.148;8.204;2023-12-20T06:27:02;100923.78;;;9.70;100.00
49216;BME280;45943;53.148;8.204;2023-12-20T06:29:28;100916.31;;;9.62;100.00
49216;BME280;45943;53.148;8.204;2023-12-20T06:31:54;100913.72;;;9.49;100.00
49216;BME280;45943;53.148;8.204;2023-12-20T06:34:20;100914.00;;;9.58;100.00
49216;BME280;45943;53.148;8.204;2023-12-20T06:36:46;100895.25;;;9.58;100.00
49216;BME280;45943;53.148;8.204;2023-12-20T06:39:12;100900.94;;;9.53;100.00
49216;BME280;45943;53.148;8.204;2023-12-20T06:41:39;100922.03;;;9.58;100.00
49216;BME280;45943;53.148;8.204;2023-12-20T06:44:05;100901.44;;;9.47;100.00
49216;BME280;45943;53.148;8.204;2023-12-20T06:46:31;100903.38;;;9.45;100.00
49216;BME280;45943;53.148;8.204;2023-12-20T06:48:57;100894.28;;;9.59;100.00
49216;BME280;45943;53.148;8.204;2023-12-20T06:51:23;100877.81;;;9.52;100.00
49216;BME280;45943;53.148;8.204;2023-12-20T06:53:51;100880.28;;;9.55;100.00
49216;BME280;45943;53.148;8.204;2023-12-20T06:56:18;100886.66;;;9.65;100.00
49216;BME280;45943;53.148;8.204;2023-12-20T06:58:44;100884.78;;;9.55;100.00
49216;BME280;45943;53.148;8.204;2023-12-20T07:01:13;100884.16;;;9.51;100.00
49216;BME280;45943;53.148;8.204;2023-12-20T07:03:40;100880.03;;;9.58;100.00
49216;BME280;45943;53.148;8.204;2023-12-20T07:06:07;100889.38;;;9.53;100.00
49216;BME280;45943;53.148;8.204;2023-12-20T07:08:33;100889.88;;;9.46;100.00
49216;BME280;45943;53.148;8.204;2023-12-20T07:10:59;100883.06;;;9.54;100.00
49216;BME280;45943;53.148;8.204;2023-12-20T07:13:25;100875.78;;;9.56;100.00
49216;BME280;45943;53.148;8.204;2023-12-20T07:15:51;100883.47;;;9.60;100.00
49216;BME280;45943;53.148;8.204;2023-12-20T07:18:17;100879.09;;;9.70;100.00
49216;BME280;45943;53.148;8.204;2023-12-20T07:20:43;100881.66;;;9.72;100.00
49216;BME280;45943;53.148;8.204;2023-12-20T07:23:09;100883.06;;;9.54;100.00
49216;BME280;45943;53.148;8.204;2023-12-20T07:25:35;100880.78;;;9.60;100.00
49216;BME280;45943;53.148;8.204;2023-12-20T07:28:01;100868.59;;;9.56;100.00
49216;BME280;45943;53.148;8.204;2023-12-20T07:30:27;100863.84;;;9.60;100.00
49216;BME280;45943;53.148;8.204;2023-12-20T07:32:53;100856.91;;;9.57;100.00
49216;BME280;45943;53.148;8.204;2023-12-20T07:35:19;100863.41;;;9.42;100.00
49216;BME280;45943;53.148;8.204;2023-12-20T07:37:45;100857.25;;;9.53;100.00
49216;BME280;45943;53.148;8.204;2023-12-20T07:40:11;100858.59;;;9.47;100.00
49216;BME280;45943;53.148;8.204;2023-12-20T07:42:37;100851.69;;;9.56;100.00
49216;BME280;45943;53.148;8.204;2023-12-20T07:45:04;100869.31;;;9.47;100.00
49216;BME280;45943;53.148;8.204;2023-12-20T07:47:30;100857.25;;;9.53;100.00
49216;BME280;45943;53.148;8.204;2023-12-20T07:49:56;100857.63;;;9.48;100.00
49216;BME280;45943;53.148;8.204;2023-12-20T07:52:22;100840.00;;;9.57;100.00
49216;BME280;45943;53.148;8.204;2023-12-20T07:54:49;100851.53;;;9.46;100.00
49216;BME280;45943;53.148;8.204;2023-12-20T07:57:15;100848.19;;;9.66;100.00
49216;BME280;45943;53.148;8.204;2023-12-20T07:59:40;100848.41;;;9.63;100.00
49216;BME280;45943;53.148;8.204;2023-12-20T08:02:06;100855.03;;;9.82;100.00
49216;BME280;45943;53.148;8.204;2023-12-20T08:04:32;100848.78;;;9.70;100.00
49216;BME280;45943;53.148;8.204;2023-12-20T08:06:58;100859.16;;;9.74;100.00
49216;BME280;45943;53.148;8.204;2023-12-20T08:09:25;100855.16;;;9.80;100.00
49216;BME280;45943;53.148;8.204;2023-12-20T08:11:51;100841.28;;;9.75;100.00
49216;BME280;45943;53.148;8.204;2023-12-20T08:14:17;100842.28;;;9.85;100.00
49216;BME280;45943;53.148;8.204;2023-12-20T08:16:43;100840.75;;;9.70;100.00
49216;BME280;45943;53.148;8.204;2023-12-20T08:19:09;100843.59;;;9.80;100.00
49216;BME280;45943;53.148;8.204;2023-12-20T08:21:35;100829.81;;;9.73;100.00
49216;BME280;45943;53.148;8.204;2023-12-20T08:24:01;100826.66;;;9.79;100.00
49216;BME280;45943;53.148;8.204;2023-12-20T08:26:28;100826.06;;;9.75;100.00
49216;BME280;45943;53.148;8.204;2023-12-20T08:28:54;100830.69;;;9.73;100.00
49216;BME280;45943;53.148;8.204;2023-12-20T08:31:20;100836.41;;;9.80;100.00
49216;BME280;45943;53.148;8.204;2023-12-20T08:33:47;100823.00;;;9.80;100.00
49216;BME280;45943;53.148;8.204;2023-12-20T08:36:14;100836.06;;;9.85;100.00
49216;BME280;45943;53.148;8.204;2023-12-20T08:38:40;100825.31;;;9.73;100.00
49216;BME280;45943;53.148;8.204;2023-12-20T08:41:06;100820.56;;;9.66;100.00
49216;BME280;45943;53.148;8.204;2023-12-20T08:43:33;100828.13;;;9.83;100.00
49216;BME280;45943;53.148;8.204;2023-12-20T08:46:01;100828.47;;;9.67;100.00
49216;BME280;45943;53.148;8.204;2023-12-20T08:48:28;100815.94;;;9.79;100.00
49216;BME280;45943;53.148;8.204;2023-12-20T08:50:54;100818.88;;;9.76;100.00
49216;BME280;45943;53.148;8.204;2023-12-20T08:53:20;100824.59;;;9.83;100.00
49216;BME280;45943;53.148;8.204;2023-12-20T08:55:46;100808.88;;;9.89;100.00
49216;BME280;45943;53.148;8.204;2023-12-20T08:58:12;100813.06;;;9.93;100.00
49216;BME280;45943;53.148;8.204;2023-12-20T09:00:39;100816.81;;;9.91;100.00
49216;BME280;45943;53.148;8.204;2023-12-20T09:03:06;100806.22;;;9.89;100.00
49216;BME280;45943;53.148;8.204;2023-12-20T09:05:32;100793.91;;;9.75;100.00
49216;BME280;45943;53.148;8.204;2023-12-20T09:07:57;100792.09;;;9.87;100.00
49216;BME280;45943;53.148;8.204;2023-12-20T09:10:23;100773.66;;;9.71;100.00
49216;BME280;45943;53.148;8.204;2023-12-20T09:12:50;100778.31;;;9.69;100.00
49216;BME280;45943;53.148;8.204;2023-12-20T09:15:22;100783.06;;;9.88;100.00
49216;BME280;45943;53.148;8.204;2023-12-20T09:17:49;100801.22;;;9.85;100.00
49216;BME280;45943;53.148;8.204;2023-12-20T09:20:15;100889.53;;;9.97;100.00
49216;BME280;45943;53.148;8.204;2023-12-20T09:22:41;100896.56;;;9.76;100.00
49216;BME280;45943;53.148;8.204;2023-12-20T09:25:08;100888.16;;;9.45;100.00
49216;BME280;45943;53.148;8.204;2023-12-20T09:27:34;100892.53;;;9.23;100.00
49216;BME280;45943;53.148;8.204;2023-12-20T09:30:00;100907.56;;;9.12;100.00
49216;BME280;45943;53.148;8.204;2023-12-20T09:32:27;100892.09;;;9.05;100.00
49216;BME280;45943;53.148;8.204;2023-12-20T09:34:53;100906.72;;;9.12;100.00
49216;BME280;45943;53.148;8.204;2023-12-20T09:37:19;100897.75;;;9.00;100.00
49216;BME280;45943;53.148;8.204;2023-12-20T09:39:44;100908.03;;;9.06;100.00
49216;BME280;45943;53.148;8.204;2023-12-20T09:42:11;100912.53;;;9.06;100.00
49216;BME280;45943;53.148;8.204;2023-12-20T09:44:42;100909.94;;;9.04;100.00
49216;BME280;45943;53.148;8.204;2023-12-20T09:47:09;100907.19;;;8.93;100.00
49216;BME280;45943;53.148;8.204;2023-12-20T09:49:36;100901.72;;;8.95;100.00
49216;BME280;45943;53.148;8.204;2023-12-20T09:52:03;100901.97;;;8.91;100.00
49216;BME280;45943;53.148;8.204;2023-12-20T09:54:31;100884.31;;;8.89;100.00
49216;BME280;45943;53.148;8.204;2023-12-20T09:56:57;100888.03;;;8.99;100.00
49216;BME280;45943;53.148;8.204;2023-12-20T09:59:23;100880.28;;;8.71;100.00
49216;BME280;45943;53.148;8.204;2023-12-20T10:01:49;100886.56;;;8.95;100.00
49216;BME280;45943;53.148;8.204;2023-12-20T10:04:20;100889.28;;;9.30;100.00
49216;BME280;45943;53.148;8.204;2023-12-20T10:06:46;100889.88;;;9.46;100.00
49216;BME280;45943;53.148;8.204;2023-12-20T10:09:13;100896.34;;;9.55;100.00
49216;BME280;45943;53.148;8.204;2023-12-20T10:11:40;100905.63;;;9.62;100.00
49216;BME280;45943;53.148;8.204;2023-12-20T10:14:06;100914.06;;;9.69;100.00
49216;BME280;45943;53.148;8.204;2023-12-20T10:16:33;100915.44;;;9.74;100.00
49216;BME280;45943;53.148;8.204;2023-12-20T10:19:00;100912.25;;;9.81;100.00
49216;BME280;45943;53.148;8.204;2023-12-20T10:21:27;100919.41;;;10.04;100.00
49216;BME280;45943;53.148;8.204;2023-12-20T10:23:53;100926.91;;;10.23;100.00
49216;BME280;45943;53.148;8.204;2023-12-20T10:26:21;100928.63;;;10.24;100.00
49216;BME280;45943;53.148;8.204;2023-12-20T10:28:51;100919.34;;;10.28;100.00
49216;BME280;45943;53.148;8.204;2023-12-20T10:33:57;100921.25;;;10.15;100.00
49216;BME280;45943;53.148;8.204;2023-12-20T10:36:31;100898.38;;;10.22;100.00
49216;BME280;45943;53.148;8.204;2023-12-20T10:38:58;100907.53;;;10.42;100.00
49216;BME280;45943;53.148;8.204;2023-12-20T10:43:54;100897.44;;;10.56;100.00
49216;BME280;45943;53.148;8.204;2023-12-20T10:46:24;100900.84;;;10.58;100.00
49216;BME280;45943;53.148;8.204;2023-12-20T10:48:55;100896.72;;;10.54;100.00
49216;BME280;45943;53.148;8.204;2023-12-20T10:51:24;100896.72;;;10.43;100.00
49216;BME280;45943;53.148;8.204;2023-12-20T10:53:55;100899.75;;;10.39;100.00
49216;BME280;45943;53.148;8.204;2023-12-20T10:56:22;100901.94;;;10.33;100.00
49216;BME280;45943;53.148;8.204;2023-12-20T10:58:52;100891.09;;;10.24;100.00
49216;BME280;45943;53.148;8.204;2023-12-20T11:01:18;100878.28;;;10.27;100.00
49216;BME280;45943;53.148;8.204;2023-12-20T11:03:49;100885.00;;;10.33;100.00
49216;BME280;45943;53.148;8.204;2023-12-20T11:06:28;100884.25;;;10.31;100.00
49216;BME280;45943;53.148;8.204;2023-12-20T11:09:24;100880.47;;;10.22;100.00
49216;BME280;45943;53.148;8.204;2023-12-20T11:12:02;100886.59;;;10.24;100.00
49216;BME280;45943;53.148;8.204;2023-12-20T11:14:49;100883.53;;;10.29;100.00
49216;BME280;45943;53.148;8.204;2023-12-20T11:17:17;100877.31;;;10.28;100.00
49216;BME280;45943;53.148;8.204;2023-12-20T11:22:19;100867.22;;;10.43;100.00
49216;BME280;45943;53.148;8.204;2023-12-20T11:24:46;100868.06;;;10.44;100.00
49216;BME280;45943;53.148;8.204;2023-12-20T11:27:13;100862.56;;;10.45;100.00
49216;BME280;45943;53.148;8.204;2023-12-20T11:29:39;100867.31;;;10.30;100.00
49216;BME280;45943;53.148;8.204;2023-12-20T11:34:55;100868.06;;;10.32;100.00
49216;BME280;45943;53.148;8.204;2023-12-20T11:37:28;100870.97;;;10.41;100.00
49216;BME280;45943;53.148;8.204;2023-12-20T11:40:00;100875.13;;;10.45;100.00
49216;BME280;45943;53.148;8.204;2023-12-20T11:42:28;100870.50;;;10.47;100.00
49216;BME280;45943;53.148;8.204;2023-12-20T11:45:01;100873.31;;;10.45;100.00
49216;BME280;45943;53.148;8.204;2023-12-20T11:47:29;100864.28;;;10.46;100.00
49216;BME280;45943;53.148;8.204;2023-12-20T11:49:56;100854.03;;;10.62;100.00
49216;BME280;45943;53.148;8.204;2023-12-20T11:52:23;100843.41;;;10.61;100.00
49216;BME280;45943;53.148;8.204;2023-12-20T11:54:49;100851.72;;;10.58;100.00
49216;BME280;45943;53.148;8.204;2023-12-20T11:57:14;100857.94;;;10.58;100.00
49216;BME280;45943;53.148;8.204;2023-12-20T11:59:40;100846.00;;;10.62;100.00
49216;BME280;45943;53.148;8.204;2023-12-20T12:02:08;100852.53;;;10.70;100.00
49216;BME280;45943;53.148;8.204;2023-12-20T12:04:37;100834.63;;;10.70;100.00
49216;BME280;45943;53.148;8.204;2023-12-20T12:07:03;100843.13;;;10.86;100.00
49216;BME280;45943;53.148;8.204;2023-12-20T12:09:29;100858.66;;;10.83;100.00
49216;BME280;45943;53.148;8.204;2023-12-20T12:11:55;100851.44;;;10.83;100.00
49216;BME280;45943;53.148;8.204;2023-12-20T12:14:22;100855.97;;;10.83;100.00
49216;BME280;45943;53.148;8.204;2023-12-20T12:16:48;100845.31;;;10.93;100.00
49216;BME280;45943;53.148;8.204;2023-12-20T12:19:24;100846.19;;;10.93;100.00
49216;BME280;45943;53.148;8.204;2023-12-20T12:22:03;100851.03;;;10.99;100.00
49216;BME280;45943;53.148;8.204;2023-12-20T12:24:36;100839.13;;;10.92;100.00
49216;BME280;45943;53.148;8.204;2023-12-20T12:27:03;100841.16;;;10.88;100.00
49216;BME280;45943;53.148;8.204;2023-12-20T12:29:31;100846.41;;;10.90;100.00
49216;BME280;45943;53.148;8.204;2023-12-20T12:31:57;100862.19;;;10.83;100.00
49216;BME280;45943;53.148;8.204;2023-12-20T12:34:23;100869.16;;;10.63;100.00
49216;BME280;45943;53.148;8.204;2023-12-20T12:36:49;100861.84;;;10.43;100.00
49216;BME280;45943;53.148;8.204;2023-12-20T12:39:17;100867.19;;;10.32;100.00
49216;BME280;45943;53.148;8.204;2023-12-20T12:41:43;100870.38;;;10.26;100.00
49216;BME280;45943;53.148;8.204;2023-12-20T12:44:09;100864.88;;;10.27;100.00
49216;BME280;45943;53.148;8.204;2023-12-20T12:46:35;100854.28;;;10.26;100.00
49216;BME280;45943;53.148;8.204;2023-12-20T12:49:01;100853.91;;;10.30;100.00
49216;BME280;45943;53.148;8.204;2023-12-20T12:51:27;100849.91;;;10.36;100.00
49216;BME280;45943;53.148;8.204;2023-12-20T12:53:53;100855.97;;;10.49;100.00
49216;BME280;45943;53.148;8.204;2023-12-20T12:56:19;100850.38;;;10.52;100.00